sensor_id;sensor_type;location;lat;lon;timestamp;temperature;humidity
41756;DHT22;27435;48.480;9.258;2022-09-29T00:01:28;7.40;99.00
41756;DHT22;27435;48.480;9.258;2022-09-29T00:03:54;7.50;99.00
41756;DHT22;27435;48.480;9.258;2022-09-29T00:06:19;7.50;99.00
41756;DHT22;27435;48.480;9.258;2022-09-29T00:08:45;7.50;99.00
41756;DHT22;27435;48.480;9.258;2022-09-29T00:11:17;7.60;99.00
41756;DHT22;27435;48.480;9.258;2022-09-29T00:13:43;7.60;99.00
41756;DHT22;27435;48.480;9.258;2022-09-29T00:16:09;7.60;99.00
41756;DHT22;27435;48.480;9.258;2022-09-29T00:18:35;7.60;99.00
41756;DHT22;27435;48.480;9.258;2022-09-29T00:21:07;7.70;99.00
41756;DHT22;27435;48.480;9.258;2022-09-29T00:23:34;7.70;99.00
41756;DHT22;27435;48.480;9.258;2022-09-29T00:28:40;7.70;99.00
41756;DHT22;27435;48.480;9.258;2022-09-29T00:31:08;7.70;99.00
41756;DHT22;27435;48.480;9.258;2022-09-29T00:33:36;7.60;99.00
41756;DHT22;27435;48.480;9.258;2022-09-29T00:36:05;7.60;99.00
41756;DHT22;27435;48.480;9.258;2022-09-29T00:38:31;7.60;99.00
41756;DHT22;27435;48.480;9.258;2022-09-29T00:40:57;7.50;99.00
41756;DHT22;27435;48.480;9.258;2022-09-29T00:46:49;7.60;99.00
41756;DHT22;27435;48.480;9.258;2022-09-29T00:57:48;7.80;99.00
41756;DHT22;27435;48.480;9.258;2022-09-29T01:00:15;7.70;99.00
41756;DHT22;27435;48.480;9.258;2022-09-29T01:03:02;7.80;99.00
41756;DHT22;27435;48.480;9.258;2022-09-29T01:05:32;7.80;99.00
41756;DHT22;27435;48.480;9.258;2022-09-29T01:08:08;7.80;99.00
41756;DHT22;27435;48.480;9.258;2022-09-29T01:10:37;7.80;99.00
41756;DHT22;27435;48.480;9.258;2022-09-29T01:13:04;7.80;99.00
41756;DHT22;27435;48.480;9.258;2022-09-29T01:15:29;7.70;99.00
41756;DHT22;27435;48.480;9.258;2022-09-29T01:17:56;7.80;99.00
41756;DHT22;27435;48.480;9.258;2022-09-29T01:20:22;7.80;99.00
41756;DHT22;27435;48.480;9.258;2022-09-29T01:31:06;7.80;99.00
41756;DHT22;27435;48.480;9.258;2022-09-29T01:39:09;7.90;99.00
41756;DHT22;27435;48.480;9.258;2022-09-29T01:41:50;8.00;99.00
41756;DHT22;27435;48.480;9.258;2022-09-29T01:44:31;8.00;99.00
41756;DHT22;27435;48.480;9.258;2022-09-29T01:47:12;7.90;99.00
41756;DHT22;27435;48.480;9.258;2022-09-29T01:49:43;8.00;99.00
41756;DHT22;27435;48.480;9.258;2022-09-29T01:52:31;8.00;99.00
41756;DHT22;27435;48.480;9.258;2022-09-29T01:55:01;8.00;99.00
41756;DHT22;27435;48.480;9.258;2022-09-29T01:57:38;8.00;99.00
41756;DHT22;27435;48.480;9.258;2022-09-29T02:00:13;8.10;99.00
41756;DHT22;27435;48.480;9.258;2022-09-29T02:02:48;8.20;99.00
41756;DHT22;27435;48.480;9.258;2022-09-29T02:05:22;8.20;99.00
41756;DHT22;27435;48.480;9.258;2022-09-29T02:07:49;8.10;99.00
41756;DHT22;27435;48.480;9.258;2022-09-29T02:10:23;8.00;99.00
41756;DHT22;27435;48.480;9.258;2022-09-29T02:12:52;8.00;99.00
41756;DHT22;27435;48.480;9.258;2022-09-29T02:15:21;8.00;99.00
41756;DHT22;27435;48.480;9.258;2022-09-29T02:17:51;7.90;99.00
41756;DHT22;27435;48.480;9.258;2022-09-29T02:20:18;8.00;99.00
41756;DHT22;27435;48.480;9.258;2022-09-29T02:22:45;8.20;99.00
41756;DHT22;27435;48.480;9.258;2022-09-29T02:25:12;8.20;99.00
41756;DHT22;27435;48.480;9.258;2022-09-29T02:27:40;8.10;99.00
41756;DHT22;27435;48.480;9.258;2022-09-29T02:30:06;8.10;99.00
41756;DHT22;27435;48.480;9.258;2022-09-29T02:32:34;8.10;99.00
41756;DHT22;27435;48.480;9.258;2022-09-29T02:35:00;8.20;99.00
41756;DHT22;27435;48.480;9.258;2022-09-29T02:37:46;8.00;99.00
41756;DHT22;27435;48.480;9.258;2022-09-29T02:46:32;7.90;99.00
41756;DHT22;27435;48.480;9.258;2022-09-29T02:49:22;8.00;99.00
41756;DHT22;27435;48.480;9.258;2022-09-29T02:52:17;8.00;99.00
41756;DHT22;27435;48.480;9.258;2022-09-29T02:55:06;7.90;99.00
41756;DHT22;27435;48.480;9.258;2022-09-29T02:57:49;7.80;99.00
41756;DHT22;27435;48.480;9.258;2022-09-29T03:00:16;7.80;99.00
41756;DHT22;27435;48.480;9.258;2022-09-29T03:02:43;7.70;99.00
41756;DHT22;27435;48.480;9.258;2022-09-29T03:05:11;7.60;99.00
41756;DHT22;27435;48.480;9.258;2022-09-29T03:07:38;7.70;99.00
41756;DHT22;27435;48.480;9.258;2022-09-29T03:10:05;7.70;99.00
41756;DHT22;27435;48.480;9.258;2022-09-29T03:12:33;7.80;99.00
41756;DHT22;27435;48.480;9.258;2022-09-29T03:14:58;7.80;99.00
41756;DHT22;27435;48.480;9.258;2022-09-29T03:17:24;7.80;99.00
41756;DHT22;27435;48.480;9.258;2022-09-29T03:19:50;7.80;99.00
41756;DHT22;27435;48.480;9.258;2022-09-29T03:22:15;7.80;99.00
41756;DHT22;27435;48.480;9.258;2022-09-29T03:24:42;7.80;99.00
41756;DHT22;27435;48.480;9.258;2022-09-29T03:27:08;7.80;99.00
41756;DHT22;27435;48.480;9.258;2022-09-29T03:29:36;7.80;99.00
41756;DHT22;27435;48.480;9.258;2022-09-29T03:32:03;7.70;99.00
41756;DHT22;27435;48.480;9.258;2022-09-29T03:34:30;7.60;99.00
41756;DHT22;27435;48.480;9.258;2022-09-29T03:36:55;7.50;99.00
41756;DHT22;27435;48.480;9.258;2022-09-29T03:39:23;7.40;99.00
41756;DHT22;27435;48.480;9.258;2022-09-29T03:41:49;7.40;99.00
41756;DHT22;27435;48.480;9.258;2022-09-29T03:44:17;7.40;99.00
41756;DHT22;27435;48.480;9.258;2022-09-29T03:46:43;7.30;99.00
41756;DHT22;27435;48.480;9.258;2022-09-29T03:49:11;7.50;99.00
41756;DHT22;27435;48.480;9.258;2022-09-29T03:51:37;7.50;99.00
41756;DHT22;27435;48.480;9.258;2022-09-29T03:54:03;7.50;99.00
41756;DHT22;27435;48.480;9.258;2022-09-29T03:56:28;7.40;99.00
41756;DHT22;27435;48.480;9.258;2022-09-29T03:58:54;7.50;99.00
41756;DHT22;27435;48.480;9.258;2022-09-29T04:01:20;7.40;99.00
41756;DHT22;27435;48.480;9.258;2022-09-29T04:03:45;7.40;99.00
41756;DHT22;27435;48.480;9.258;2022-09-29T04:06:11;7.40;99.00
41756;DHT22;27435;48.480;9.258;2022-09-29T04:08:37;7.30;99.00
41756;DHT22;27435;48.480;9.258;2022-09-29T04:11:04;7.20;99.00
41756;DHT22;27435;48.480;9.258;2022-09-29T04:13:29;7.20;99.00
41756;DHT22;27435;48.480;9.258;2022-09-29T04:16:03;7.20;99.00
41756;DHT22;27435;48.480;9.258;2022-09-29T04:18:29;7.10;99.00
41756;DHT22;27435;48.480;9.258;2022-09-29T04:20:56;7.20;99.00
41756;DHT22;27435;48.480;9.258;2022-09-29T04:23:25;7.20;99.00
41756;DHT22;27435;48.480;9.258;2022-09-29T04:25:52;7.20;99.00
41756;DHT22;27435;48.480;9.258;2022-09-29T04:28:17;7.30;99.00
41756;DHT22;27435;48.480;9.258;2022-09-29T04:30:43;7.30;99.00
41756;DHT22;27435;48.480;9.258;2022-09-29T04:33:09;7.20;99.00
41756;DHT22;27435;48.480;9.258;2022-09-29T04:35:34;7.20;99.00
41756;DHT22;27435;48.480;9.258;2022-09-29T04:38:00;7.30;99.00
41756;DHT22;27435;48.480;9.258;2022-09-29T04:40:27;7.40;99.00
41756;DHT22;27435;48.480;9.258;2022-09-29T04:42:52;7.40;99.00
41756;DHT22;27435;48.480;9.258;2022-09-29T04:45:18;7.50;99.00
41756;DHT22;27435;48.480;9.258;2022-09-29T04:47:47;7.70;99.00
41756;DHT22;27435;48.480;9.258;2022-09-29T04:50:14;7.80;99.00
41756;DHT22;27435;48.480;9.258;2022-09-29T04:52:45;7.70;99.00
41756;DHT22;27435;48.480;9.258;2022-09-29T04:55:16;7.80;99.00
41756;DHT22;27435;48.480;9.258;2022-09-29T04:58:00;7.70;99.00
41756;DHT22;27435;48.480;9.258;2022-09-29T05:00:26;7.70;99.00
41756;DHT22;27435;48.480;9.258;2022-09-29T05:03:03;7.70;99.00
41756;DHT22;27435;48.480;9.258;2022-09-29T05:05:44;7.80;99.00
41756;DHT22;27435;48.480;9.258;2022-09-29T05:08:32;7.70;99.00
41756;DHT22;27435;48.480;9.258;2022-09-29T05:10:58;7.60;99.00
41756;DHT22;27435;48.480;9.258;2022-09-29T05:13:26;7.70;99.00
41756;DHT22;27435;48.480;9.258;2022-09-29T05:15:55;7.60;99.00
41756;DHT22;27435;48.480;9.258;2022-09-29T05:18:22;7.60;99.00
41756;DHT22;27435;48.480;9.258;2022-09-29T05:20:48;7.50;99.00
41756;DHT22;27435;48.480;9.258;2022-09-29T05:23:13;7.50;99.00
41756;DHT22;27435;48.480;9.258;2022-09-29T05:25:39;7.50;99.00
41756;DHT22;27435;48.480;9.258;2022-09-29T05:28:05;7.60;99.00
41756;DHT22;27435;48.480;9.258;2022-09-29T05:30:31;7.60;99.00
41756;DHT22;27435;48.480;9.258;2022-09-29T05:32:56;7.50;99.00
41756;DHT22;27435;48.480;9.258;2022-09-29T05:35:22;7.50;99.00
41756;DHT22;27435;48.480;9.258;2022-09-29T05:37:47;7.60;99.00
41756;DHT22;27435;48.480;9.258;2022-09-29T05:40:14;7.70;99.00
41756;DHT22;27435;48.480;9.258;2022-09-29T05:42:40;7.70;99.00
41756;DHT22;27435;48.480;9.258;2022-09-29T05:45:06;7.80;99.00
41756;DHT22;27435;48.480;9.258;2022-09-29T05:47:34;7.80;99.00
41756;DHT22;27435;48.480;9.258;2022-09-29T05:50:00;7.80;99.00
41756;DHT22;27435;48.480;9.258;2022-09-29T05:52:28;7.80;99.00
41756;DHT22;27435;48.480;9.258;2022-09-29T05:54:53;7.80;99.00
41756;DHT22;27435;48.480;9.258;2022-09-29T05:57:19;7.80;99.00
41756;DHT22;27435;48.480;9.258;2022-09-29T05:59:45;7.80;99.00
41756;DHT22;27435;48.480;9.258;2022-09-29T06:02:10;7.70;99.00
41756;DHT22;27435;48.480;9.258;2022-09-29T06:04:36;7.90;99.00
41756;DHT22;27435;48.480;9.258;2022-09-29T06:07:01;7.90;99.00
41756;DHT22;27435;48.480;9.258;2022-09-29T06:09:29;7.90;99.00
41756;DHT22;27435;48.480;9.258;2022-09-29T06:11:54;8.00;99.00
41756;DHT22;27435;48.480;9.258;2022-09-29T06:14:20;8.10;99.00
41756;DHT22;27435;48.480;9.258;2022-09-29T06:16:46;8.30;99.00
41756;DHT22;27435;48.480;9.258;2022-09-29T06:19:11;8.30;99.00
41756;DHT22;27435;48.480;9.258;2022-09-29T06:21:38;8.50;99.00
41756;DHT22;27435;48.480;9.258;2022-09-29T06:24:04;8.60;99.00
41756;DHT22;27435;48.480;9.258;2022-09-29T06:26:31;8.60;99.00
41756;DHT22;27435;48.480;9.258;2022-09-29T06:28:57;8.60;99.00
41756;DHT22;27435;48.480;9.258;2022-09-29T06:31:25;8.60;99.00
41756;DHT22;27435;48.480;9.258;2022-09-29T06:33:51;8.80;99.00
41756;DHT22;27435;48.480;9.258;2022-09-29T06:36:21;8.90;99.00
41756;DHT22;27435;48.480;9.258;2022-09-29T06:39:09;8.90;99.00
41756;DHT22;27435;48.480;9.258;2022-09-29T06:41:35;8.90;99.00
41756;DHT22;27435;48.480;9.258;2022-09-29T06:44:01;9.00;99.00
41756;DHT22;27435;48.480;9.258;2022-09-29T06:46:27;9.10;99.00
41756;DHT22;27435;48.480;9.258;2022-09-29T06:48:53;9.20;99.00
41756;DHT22;27435;48.480;9.258;2022-09-29T06:51:20;9.20;99.00
41756;DHT22;27435;48.480;9.258;2022-09-29T06:53:50;9.40;99.00
41756;DHT22;27435;48.480;9.258;2022-09-29T06:56:17;9.50;99.00
41756;DHT22;27435;48.480;9.258;2022-09-29T06:58:44;9.50;99.00
41756;DHT22;27435;48.480;9.258;2022-09-29T07:01:09;9.50;99.00
41756;DHT22;27435;48.480;9.258;2022-09-29T07:03:36;9.30;99.00
41756;DHT22;27435;48.480;9.258;2022-09-29T07:06:06;9.40;99.00
41756;DHT22;27435;48.480;9.258;2022-09-29T07:08:37;9.40;99.00
41756;DHT22;27435;48.480;9.258;2022-09-29T07:11:10;9.50;99.00
41756;DHT22;27435;48.480;9.258;2022-09-29T07:13:36;9.70;99.00
41756;DHT22;27435;48.480;9.258;2022-09-29T07:16:06;9.90;99.00
41756;DHT22;27435;48.480;9.258;2022-09-29T07:18:36;10.00;99.00
41756;DHT22;27435;48.480;9.258;2022-09-29T07:21:08;9.90;99.00
41756;DHT22;27435;48.480;9.258;2022-09-29T07:23:35;9.80;99.00
41756;DHT22;27435;48.480;9.258;2022-09-29T07:26:01;9.70;99.00
41756;DHT22;27435;48.480;9.258;2022-09-29T07:28:28;9.80;99.00
41756;DHT22;27435;48.480;9.258;2022-09-29T07:31:01;9.90;99.00
41756;DHT22;27435;48.480;9.258;2022-09-29T07:33:27;9.80;99.00
41756;DHT22;27435;48.480;9.258;2022-09-29T07:35:53;9.80;99.00
41756;DHT22;27435;48.480;9.258;2022-09-29T07:38:19;9.90;99.00
41756;DHT22;27435;48.480;9.258;2022-09-29T07:40:45;9.80;99.00
41756;DHT22;27435;48.480;9.258;2022-09-29T07:43:10;9.80;99.00
41756;DHT22;27435;48.480;9.258;2022-09-29T07:45:36;9.90;99.00
41756;DHT22;27435;48.480;9.258;2022-09-29T07:48:02;10.00;99.00
41756;DHT22;27435;48.480;9.258;2022-09-29T07:50:28;10.10;99.00
41756;DHT22;27435;48.480;9.258;2022-09-29T07:52:54;10.20;99.00
41756;DHT22;27435;48.480;9.258;2022-09-29T07:55:19;10.30;99.00
41756;DHT22;27435;48.480;9.258;2022-09-29T07:57:48;10.50;99.00
41756;DHT22;27435;48.480;9.258;2022-09-29T08:00:14;10.40;99.00
41756;DHT22;27435;48.480;9.258;2022-09-29T08:02:41;10.70;99.00
41756;DHT22;27435;48.480;9.258;2022-09-29T08:05:08;10.70;99.00
41756;DHT22;27435;48.480;9.258;2022-09-29T08:07:33;10.80;99.00
41756;DHT22;27435;48.480;9.258;2022-09-29T08:09:59;10.60;99.00
41756;DHT22;27435;48.480;9.258;2022-09-29T08:12:26;10.60;99.00
41756;DHT22;27435;48.480;9.258;2022-09-29T08:14:51;10.60;99.00
41756;DHT22;27435;48.480;9.258;2022-09-29T08:17:17;10.60;99.00
41756;DHT22;27435;48.480;9.258;2022-09-29T08:19:43;10.50;99.00
41756;DHT22;27435;48.480;9.258;2022-09-29T08:22:08;10.50;99.00
41756;DHT22;27435;48.480;9.258;2022-09-29T08:24:34;10.70;99.00
41756;DHT22;27435;48.480;9.258;2022-09-29T08:27:02;10.80;99.00
41756;DHT22;27435;48.480;9.258;2022-09-29T08:29:29;10.80;99.00
41756;DHT22;27435;48.480;9.258;2022-09-29T08:31:55;10.70;99.00
41756;DHT22;27435;48.480;9.258;2022-09-29T08:34:21;10.80;99.00
41756;DHT22;27435;48.480;9.258;2022-09-29T08:36:46;10.50;99.00
41756;DHT22;27435;48.480;9.258;2022-09-29T08:39:12;10.70;99.00
41756;DHT22;27435;48.480;9.258;2022-09-29T08:46:56;11.10;99.00
41756;DHT22;27435;48.480;9.258;2022-09-29T08:49:46;11.20;99.00
41756;DHT22;27435;48.480;9.258;2022-09-29T08:52:28;11.30;99.00
41756;DHT22;27435;48.480;9.258;2022-09-29T08:57:54;11.40;99.00
41756;DHT22;27435;48.480;9.258;2022-09-29T09:04:15;12.20;99.00
41756;DHT22;27435;48.480;9.258;2022-09-29T09:07:27;12.30;99.00
41756;DHT22;27435;48.480;9.258;2022-09-29T09:10:00;12.80;99.00
41756;DHT22;27435;48.480;9.258;2022-09-29T09:12:40;12.80;99.00
41756;DHT22;27435;48.480;9.258;2022-09-29T09:15:23;12.90;99.00
41756;DHT22;27435;48.480;9.258;2022-09-29T09:17:55;12.90;99.00
41756;DHT22;27435;48.480;9.258;2022-09-29T09:20:29;12.50;99.00
41756;DHT22;27435;48.480;9.258;2022-09-29T09:25:45;12.50;99.00
41756;DHT22;27435;48.480;9.258;2022-09-29T09:33:45;12.60;99.00
41756;DHT22;27435;48.480;9.258;2022-09-29T09:36:28;12.50;99.00
41756;DHT22;27435;48.480;9.258;2022-09-29T09:39:17;12.60;99.00
41756;DHT22;27435;48.480;9.258;2022-09-29T09:41:49;12.40;99.00
41756;DHT22;27435;48.480;9.258;2022-09-29T09:44:25;12.00;99.00
41756;DHT22;27435;48.480;9.258;2022-09-29T09:46:57;11.80;99.00
41756;DHT22;27435;48.480;9.258;2022-09-29T09:49:38;12.30;99.00
41756;DHT22;27435;48.480;9.258;2022-09-29T09:52:21;12.40;99.00
41756;DHT22;27435;48.480;9.258;2022-09-29T09:55:00;12.30;99.00
41756;DHT22;27435;48.480;9.258;2022-09-29T09:57:58;11.80;99.00
41756;DHT22;27435;48.480;9.258;2022-09-29T10:03:12;12.00;99.00
41756;DHT22;27435;48.480;9.258;2022-09-29T10:05:43;12.30;99.00
41756;DHT22;27435;48.480;9.258;2022-09-29T10:08:29;12.70;99.00
41756;DHT22;27435;48.480;9.258;2022-09-29T10:10:57;12.80;99.00
41756;DHT22;27435;48.480;9.258;2022-09-29T10:13:28;13.00;99.00
41756;DHT22;27435;48.480;9.258;2022-09-29T10:16:16;12.90;99.00
41756;DHT22;27435;48.480;9.258;2022-09-29T10:18:48;12.80;99.00
41756;DHT22;27435;48.480;9.258;2022-09-29T10:24:05;12.40;99.00
41756;DHT22;27435;48.480;9.258;2022-09-29T10:26:46;12.30;99.00
41756;DHT22;27435;48.480;9.258;2022-09-29T10:29:36;12.50;99.00
41756;DHT22;27435;48.480;9.258;2022-09-29T10:32:12;12.20;99.00
41756;DHT22;27435;48.480;9.258;2022-09-29T10:34:43;11.80;99.00
41756;DHT22;27435;48.480;9.258;2022-09-29T10:37:26;11.90;99.00
41756;DHT22;27435;48.480;9.258;2022-09-29T10:42:39;11.50;99.00
41756;DHT22;27435;48.480;9.258;2022-09-29T10:45:25;11.70;99.00
41756;DHT22;27435;48.480;9.258;2022-09-29T10:50:28;11.70;99.00
41756;DHT22;27435;48.480;9.258;2022-09-29T10:52:56;11.80;99.00
41756;DHT22;27435;48.480;9.258;2022-09-29T10:55:28;11.90;99.00
41756;DHT22;27435;48.480;9.258;2022-09-29T10:57:56;12.30;99.00
41756;DHT22;27435;48.480;9.258;2022-09-29T11:00:43;12.40;98.40
41756;DHT22;27435;48.480;9.258;2022-09-29T11:03:21;12.20;98.50
41756;DHT22;27435;48.480;9.258;2022-09-29T11:06:08;12.70;97.00
41756;DHT22;27435;48.480;9.258;2022-09-29T11:11:31;13.00;95.40
41756;DHT22;27435;48.480;9.258;2022-09-29T11:13:58;13.40;94.70
41756;DHT22;27435;48.480;9.258;2022-09-29T11:16:35;13.50;93.70
41756;DHT22;27435;48.480;9.258;2022-09-29T11:19:10;13.90;92.30
41756;DHT22;27435;48.480;9.258;2022-09-29T11:22:06;13.80;92.80
41756;DHT22;27435;48.480;9.258;2022-09-29T11:27:37;13.60;90.70
41756;DHT22;27435;48.480;9.258;2022-09-29T11:30:13;13.40;91.90
41756;DHT22;27435;48.480;9.258;2022-09-29T11:32:48;13.60;91.50
41756;DHT22;27435;48.480;9.258;2022-09-29T11:43:43;14.00;90.00
41756;DHT22;27435;48.480;9.258;2022-09-29T11:46:49;14.30;89.20
41756;DHT22;27435;48.480;9.258;2022-09-29T11:55:45;13.80;88.40
41756;DHT22;27435;48.480;9.258;2022-09-29T12:01:12;14.40;85.70
41756;DHT22;27435;48.480;9.258;2022-09-29T12:07:00;14.40;84.80
41756;DHT22;27435;48.480;9.258;2022-09-29T12:12:27;14.20;88.20
41756;DHT22;27435;48.480;9.258;2022-09-29T12:16:03;13.70;87.30
41756;DHT22;27435;48.480;9.258;2022-09-29T12:18:01;14.20;88.40
41756;DHT22;27435;48.480;9.258;2022-09-29T12:20:31;14.70;85.50
41756;DHT22;27435;48.480;9.258;2022-09-29T12:23:01;14.10;87.00
41756;DHT22;27435;48.480;9.258;2022-09-29T12:25:34;14.00;87.50
41756;DHT22;27435;48.480;9.258;2022-09-29T12:28:17;14.40;86.00
41756;DHT22;27435;48.480;9.258;2022-09-29T12:30:51;14.70;85.80
41756;DHT22;27435;48.480;9.258;2022-09-29T12:33:32;14.70;86.30
41756;DHT22;27435;48.480;9.258;2022-09-29T12:36:32;14.80;84.40
41756;DHT22;27435;48.480;9.258;2022-09-29T12:39:33;14.70;83.60
41756;DHT22;27435;48.480;9.258;2022-09-29T12:42:16;14.60;85.90
41756;DHT22;27435;48.480;9.258;2022-09-29T12:45:15;14.70;85.10
41756;DHT22;27435;48.480;9.258;2022-09-29T12:51:38;14.50;84.00
41756;DHT22;27435;48.480;9.258;2022-09-29T12:56:45;14.70;83.00
41756;DHT22;27435;48.480;9.258;2022-09-29T13:01:53;14.90;83.10
41756;DHT22;27435;48.480;9.258;2022-09-29T13:10:33;14.80;82.60
41756;DHT22;27435;48.480;9.258;2022-09-29T13:13:27;14.50;80.90
41756;DHT22;27435;48.480;9.258;2022-09-29T13:16:34;14.20;81.80
41756;DHT22;27435;48.480;9.258;2022-09-29T13:30:21;14.80;81.50
41756;DHT22;27435;48.480;9.258;2022-09-29T13:32:48;15.30;79.80
41756;DHT22;27435;48.480;9.258;2022-09-29T13:35:17;15.30;79.70
41756;DHT22;27435;48.480;9.258;2022-09-29T13:37:56;15.30;78.30
41756;DHT22;27435;48.480;9.258;2022-09-29T13:40:28;15.60;77.00
41756;DHT22;27435;48.480;9.258;2022-09-29T13:42:55;15.90;77.10
41756;DHT22;27435;48.480;9.258;2022-09-29T13:47:57;16.00;77.80
41756;DHT22;27435;48.480;9.258;2022-09-29T14:01:10;14.60;80.60
41756;DHT22;27435;48.480;9.258;2022-09-29T14:03:38;14.60;80.60
41756;DHT22;27435;48.480;9.258;2022-09-29T14:06:12;14.80;80.20
41756;DHT22;27435;48.480;9.258;2022-09-29T14:08:44;14.70;80.00
41756;DHT22;27435;48.480;9.258;2022-09-29T14:16:33;14.50;80.40
41756;DHT22;27435;48.480;9.258;2022-09-29T14:27:24;14.00;82.80
41756;DHT22;27435;48.480;9.258;2022-09-29T14:32:39;13.60;84.00
41756;DHT22;27435;48.480;9.258;2022-09-29T14:35:23;13.60;84.00
41756;DHT22;27435;48.480;9.258;2022-09-29T14:40:24;13.40;84.60
41756;DHT22;27435;48.480;9.258;2022-09-29T14:43:11;13.40;85.80
41756;DHT22;27435;48.480;9.258;2022-09-29T14:52:42;13.80;84.40
41756;DHT22;27435;48.480;9.258;2022-09-29T15:03:44;13.70;83.50
41756;DHT22;27435;48.480;9.258;2022-09-29T15:06:13;13.60;83.60
41756;DHT22;27435;48.480;9.258;2022-09-29T15:08:40;13.40;84.30
41756;DHT22;27435;48.480;9.258;2022-09-29T15:13:51;13.40;85.20
41756;DHT22;27435;48.480;9.258;2022-09-29T15:19:51;13.40;83.20
41756;DHT22;27435;48.480;9.258;2022-09-29T15:25:31;13.50;87.20
41756;DHT22;27435;48.480;9.258;2022-09-29T15:30:26;13.60;86.60
41756;DHT22;27435;48.480;9.258;2022-09-29T15:32:54;13.70;86.30
41756;DHT22;27435;48.480;9.258;2022-09-29T15:35:28;13.70;86.60
41756;DHT22;27435;48.480;9.258;2022-09-29T15:38:18;13.70;87.00
41756;DHT22;27435;48.480;9.258;2022-09-29T15:40:54;13.70;87.00
41756;DHT22;27435;48.480;9.258;2022-09-29T15:43:25;13.60;86.90
41756;DHT22;27435;48.480;9.258;2022-09-29T15:46:01;13.60;87.10
41756;DHT22;27435;48.480;9.258;2022-09-29T15:48:33;13.60;86.70
41756;DHT22;27435;48.480;9.258;2022-09-29T15:50:58;13.60;87.70
41756;DHT22;27435;48.480;9.258;2022-09-29T15:53:26;13.60;87.80
41756;DHT22;27435;48.480;9.258;2022-09-29T15:55:52;13.50;88.40
41756;DHT22;27435;48.480;9.258;2022-09-29T16:00:55;13.30;87.40
41756;DHT22;27435;48.480;9.258;2022-09-29T16:03:26;13.20;87.40
41756;DHT22;27435;48.480;9.258;2022-09-29T16:06:13;13.30;87.40
41756;DHT22;27435;48.480;9.258;2022-09-29T16:08:46;13.20;88.30
41756;DHT22;27435;48.480;9.258;2022-09-29T16:11:30;13.20;89.60
41756;DHT22;27435;48.480;9.258;2022-09-29T16:14:07;13.10;89.90
41756;DHT22;27435;48.480;9.258;2022-09-29T16:16:41;13.00;90.50
41756;DHT22;27435;48.480;9.258;2022-09-29T16:19:13;12.90;91.60
41756;DHT22;27435;48.480;9.258;2022-09-29T16:21:41;12.70;91.30
41756;DHT22;27435;48.480;9.258;2022-09-29T16:24:16;12.70;91.10
41756;DHT22;27435;48.480;9.258;2022-09-29T16:26:53;12.60;91.00
41756;DHT22;27435;48.480;9.258;2022-09-29T16:31:46;12.40;92.30
41756;DHT22;27435;48.480;9.258;2022-09-29T16:39:15;12.30;93.80
41756;DHT22;27435;48.480;9.258;2022-09-29T16:41:42;12.40;93.90
41756;DHT22;27435;48.480;9.258;2022-09-29T16:44:25;12.30;94.80
41756;DHT22;27435;48.480;9.258;2022-09-29T16:51:55;12.10;96.00
41756;DHT22;27435;48.480;9.258;2022-09-29T16:54:27;12.20;96.20
41756;DHT22;27435;48.480;9.258;2022-09-29T16:57:23;12.10;96.90
41756;DHT22;27435;48.480;9.258;2022-09-29T17:00:01;12.00;97.70
41756;DHT22;27435;48.480;9.258;2022-09-29T17:02:29;12.00;98.60
41756;DHT22;27435;48.480;9.258;2022-09-29T17:04:55;11.90;99.00
41756;DHT22;27435;48.480;9.258;2022-09-29T17:07:23;11.80;99.00
41756;DHT22;27435;48.480;9.258;2022-09-29T17:09:52;11.80;98.80
41756;DHT22;27435;48.480;9.258;2022-09-29T17:12:20;11.90;98.80
41756;DHT22;27435;48.480;9.258;2022-09-29T17:14:46;11.80;99.00
41756;DHT22;27435;48.480;9.258;2022-09-29T17:17:20;11.80;99.00
41756;DHT22;27435;48.480;9.258;2022-09-29T17:19:51;11.80;99.00
41756;DHT22;27435;48.480;9.258;2022-09-29T17:22:27;11.70;99.00
41756;DHT22;27435;48.480;9.258;2022-09-29T17:24:53;11.70;99.00
41756;DHT22;27435;48.480;9.258;2022-09-29T17:27:19;11.60;99.00
41756;DHT22;27435;48.480;9.258;2022-09-29T17:30:04;11.40;99.00
41756;DHT22;27435;48.480;9.258;2022-09-29T17:32:30;11.40;99.00
41756;DHT22;27435;48.480;9.258;2022-09-29T17:34:56;11.30;99.00
41756;DHT22;27435;48.480;9.258;2022-09-29T17:37:22;11.30;99.00
41756;DHT22;27435;48.480;9.258;2022-09-29T17:39:49;11.40;99.00
41756;DHT22;27435;48.480;9.258;2022-09-29T17:42:14;11.30;99.00
41756;DHT22;27435;48.480;9.258;2022-09-29T17:44:40;11.20;99.00
41756;DHT22;27435;48.480;9.258;2022-09-29T17:47:15;11.20;99.00
41756;DHT22;27435;48.480;9.258;2022-09-29T17:49:42;11.10;99.00
41756;DHT22;27435;48.480;9.258;2022-09-29T17:52:08;11.10;99.00
41756;DHT22;27435;48.480;9.258;2022-09-29T17:54:37;10.90;99.00
41756;DHT22;27435;48.480;9.258;2022-09-29T17:57:04;11.00;99.00
41756;DHT22;27435;48.480;9.258;2022-09-29T17:59:30;11.00;99.00
41756;DHT22;27435;48.480;9.258;2022-09-29T18:01:59;11.00;99.00
41756;DHT22;27435;48.480;9.258;2022-09-29T18:04:25;10.80;99.00
41756;DHT22;27435;48.480;9.258;2022-09-29T18:06:51;10.80;99.00
41756;DHT22;27435;48.480;9.258;2022-09-29T18:09:17;10.80;99.00
41756;DHT22;27435;48.480;9.258;2022-09-29T18:11:43;10.90;99.00
41756;DHT22;27435;48.480;9.258;2022-09-29T18:14:09;10.90;99.00
41756;DHT22;27435;48.480;9.258;2022-09-29T18:16:35;11.00;99.00
41756;DHT22;27435;48.480;9.258;2022-09-29T18:19:00;11.00;99.00
41756;DHT22;27435;48.480;9.258;2022-09-29T18:21:26;11.10;99.00
41756;DHT22;27435;48.480;9.258;2022-09-29T18:23:52;11.00;99.00
41756;DHT22;27435;48.480;9.258;2022-09-29T18:26:17;11.00;99.00
41756;DHT22;27435;48.480;9.258;2022-09-29T18:28:43;11.00;99.00
41756;DHT22;27435;48.480;9.258;2022-09-29T18:31:24;11.00;99.00
41756;DHT22;27435;48.480;9.258;2022-09-29T18:33:51;11.00;99.00
41756;DHT22;27435;48.480;9.258;2022-09-29T18:36:17;11.00;99.00
41756;DHT22;27435;48.480;9.258;2022-09-29T18:38:43;10.90;99.00
41756;DHT22;27435;48.480;9.258;2022-09-29T18:41:12;11.00;99.00
41756;DHT22;27435;48.480;9.258;2022-09-29T18:43:40;10.90;99.00
41756;DHT22;27435;48.480;9.258;2022-09-29T18:46:06;10.80;99.00
41756;DHT22;27435;48.480;9.258;2022-09-29T18:48:32;10.80;99.00
41756;DHT22;27435;48.480;9.258;2022-09-29T18:50:57;10.80;99.00
41756;DHT22;27435;48.480;9.258;2022-09-29T18:53:23;10.80;99.00
41756;DHT22;27435;48.480;9.258;2022-09-29T18:55:54;10.70;99.00
41756;DHT22;27435;48.480;9.258;2022-09-29T18:58:21;10.70;99.00
41756;DHT22;27435;48.480;9.258;2022-09-29T19:00:49;10.70;99.00
41756;DHT22;27435;48.480;9.258;2022-09-29T19:03:18;10.70;99.00
41756;DHT22;27435;48.480;9.258;2022-09-29T19:05:45;10.80;99.00
41756;DHT22;27435;48.480;9.258;2022-09-29T19:08:13;10.80;99.00
41756;DHT22;27435;48.480;9.258;2022-09-29T19:10:40;10.80;99.00
41756;DHT22;27435;48.480;9.258;2022-09-29T19:13:11;10.80;99.00
41756;DHT22;27435;48.480;9.258;2022-09-29T19:15:39;10.80;99.00
41756;DHT22;27435;48.480;9.258;2022-09-29T19:18:06;10.80;99.00